sensor_id;sensor_type;location;lat;lon;timestamp;pressure;altitude;pressure_sealevel;temperature;humidity
78562;BME280;68963;52.138;5.446;2023-08-07T00:02:05;101345.31;;;12.99;100.00
78562;BME280;68963;52.138;5.446;2023-08-07T00:04:33;101344.34;;;13.00;100.00
78562;BME280;68963;52.138;5.446;2023-08-07T00:07:00;101343.53;;;13.00;100.00
78562;BME280;68963;52.138;5.446;2023-08-07T00:09:26;101347.97;;;12.99;100.00
78562;BME280;68963;52.138;5.446;2023-08-07T00:11:53;101355.09;;;12.99;100.00
78562;BME280;68963;52.138;5.446;2023-08-07T00:14:20;101336.59;;;12.99;100.00
78562;BME280;68963;52.138;5.446;2023-08-07T00:16:47;101357.75;;;12.99;100.00
78562;BME280;68963;52.138;5.446;2023-08-07T00:19:14;101341.69;;;13.00;100.00
78562;BME280;68963;52.138;5.446;2023-08-07T00:21:41;101354.91;;;13.00;100.00
78562;BME280;68963;52.138;5.446;2023-08-07T00:24:08;101347.00;;;13.00;100.00
78562;BME280;68963;52.138;5.446;2023-08-07T00:26:35;101346.34;;;12.98;100.00
78562;BME280;68963;52.138;5.446;2023-08-07T00:29:01;101349.00;;;12.98;100.00
78562;BME280;68963;52.138;5.446;2023-08-07T00:31:29;101354.28;;;12.98;100.00
78562;BME280;68963;52.138;5.446;2023-08-07T00:33:58;101368.31;;;12.99;100.00
78562;BME280;68963;52.138;5.446;2023-08-07T00:36:29;101347.53;;;12.96;100.00
78562;BME280;68963;52.138;5.446;2023-08-07T00:38:57;101345.91;;;12.95;100.00
78562;BME280;68963;52.138;5.446;2023-08-07T00:41:24;101353.84;;;12.95;100.00
78562;BME280;68963;52.138;5.446;2023-08-07T00:43:51;101356.31;;;12.96;100.00
78562;BME280;68963;52.138;5.446;2023-08-07T00:46:17;101342.25;;;12.96;100.00
78562;BME280;68963;52.138;5.446;2023-08-07T00:48:45;101344.88;;;12.96;100.00
78562;BME280;68963;52.138;5.446;2023-08-07T00:51:12;101344.06;;;12.95;100.00
78562;BME280;68963;52.138;5.446;2023-08-07T00:53:39;101339.81;;;12.94;100.00
78562;BME280;68963;52.138;5.446;2023-08-07T00:56:07;101346.72;;;12.95;100.00
78562;BME280;68963;52.138;5.446;2023-08-07T00:58:34;101348.38;;;12.96;100.00
78562;BME280;68963;52.138;5.446;2023-08-07T01:01:00;101344.88;;;12.96;100.00
78562;BME280;68963;52.138;5.446;2023-08-07T01:03:28;101338.78;;;12.95;100.00
78562;BME280;68963;52.138;5.446;2023-08-07T01:05:54;101339.44;;;12.97;100.00
78562;BME280;68963;52.138;5.446;2023-08-07T01:08:22;101339.88;;;13.01;100.00
78562;BME280;68963;52.138;5.446;2023-08-07T01:13:24;101342.50;;;13.01;100.00
78562;BME280;68963;52.138;5.446;2023-08-07T01:15:58;101345.75;;;13.03;100.00
78562;BME280;68963;52.138;5.446;2023-08-07T01:18:26;101356.56;;;13.01;100.00
78562;BME280;68963;52.138;5.446;2023-08-07T01:20:53;101354.91;;;13.00;100.00
78562;BME280;68963;52.138;5.446;2023-08-07T01:23:20;101351.25;;;13.01;100.00
78562;BME280;68963;52.138;5.446;2023-08-07T01:25:47;101346.78;;;13.02;100.00
78562;BME280;68963;52.138;5.446;2023-08-07T01:28:19;101357.34;;;13.02;100.00
78562;BME280;68963;52.138;5.446;2023-08-07T01:30:55;101358.19;;;13.02;100.00
78562;BME280;68963;52.138;5.446;2023-08-07T01:33:31;101356.16;;;13.04;100.00
78562;BME280;68963;52.138;5.446;2023-08-07T01:36:02;101356.97;;;13.05;100.00
78562;BME280;68963;52.138;5.446;2023-08-07T01:38:38;101361.47;;;13.04;100.00
78562;BME280;68963;52.138;5.446;2023-08-07T01:41:05;101361.47;;;13.04;100.00
78562;BME280;68963;52.138;5.446;2023-08-07T01:43:33;101362.91;;;13.07;100.00
78562;BME280;68963;52.138;5.446;2023-08-07T01:46:00;101369.03;;;13.08;100.00
78562;BME280;68963;52.138;5.446;2023-08-07T01:48:27;101365.78;;;13.12;100.00
78562;BME280;68963;52.138;5.446;2023-08-07T01:50:53;101356.84;;;13.13;100.00
78562;BME280;68963;52.138;5.446;2023-08-07T01:53:22;101362.34;;;13.12;100.00
78562;BME280;68963;52.138;5.446;2023-08-07T01:55:49;101361.53;;;13.11;100.00
78562;BME280;68963;52.138;5.446;2023-08-07T01:58:16;101366.81;;;13.11;100.00
78562;BME280;68963;52.138;5.446;2023-08-07T02:00:43;101359.69;;;13.12;100.00
78562;BME280;68963;52.138;5.446;2023-08-07T02:03:10;101368.44;;;13.12;100.00
78562;BME280;68963;52.138;5.446;2023-08-07T02:05:40;101365.78;;;13.12;100.00
78562;BME280;68963;52.138;5.446;2023-08-07T02:08:07;101366.59;;;13.13;100.00
78562;BME280;68963;52.138;5.446;2023-08-07T02:10:33;101361.53;;;13.11;100.00
78562;BME280;68963;52.138;5.446;2023-08-07T02:13:04;101372.09;;;13.11;100.00
78562;BME280;68963;52.138;5.446;2023-08-07T02:15:39;101376.53;;;13.11;100.00
78562;BME280;68963;52.138;5.446;2023-08-07T02:18:06;101385.94;;;13.13;100.00
78562;BME280;68963;52.138;5.446;2023-08-07T02:20:33;101384.91;;;13.14;100.00
78562;BME280;68963;52.138;5.446;2023-08-07T02:23:05;101385.13;;;13.13;100.00
78562;BME280;68963;52.138;5.446;2023-08-07T02:25:32;101390.63;;;13.11;100.00
78562;BME280;68963;52.138;5.446;2023-08-07T02:28:01;101379.19;;;13.11;100.00
78562;BME280;68963;52.138;5.446;2023-08-07T02:30:28;101385.50;;;13.10;100.00
78562;BME280;68963;52.138;5.446;2023-08-07T02:32:58;101377.56;;;13.10;100.00
78562;BME280;68963;52.138;5.446;2023-08-07T02:35:25;101382.25;;;13.08;100.00
78562;BME280;68963;52.138;5.446;2023-08-07T02:37:52;101381.44;;;13.07;100.00
78562;BME280;68963;52.138;5.446;2023-08-07T02:40:23;101382.03;;;13.09;100.00
78562;BME280;68963;52.138;5.446;2023-08-07T02:42:50;101384.69;;;13.09;100.00
78562;BME280;68963;52.138;5.446;2023-08-07T02:45:26;101378.59;;;13.09;100.00
78562;BME280;68963;52.138;5.446;2023-08-07T02:47:53;101380.41;;;13.08;100.00
78562;BME280;68963;52.138;5.446;2023-08-07T02:50:20;101387.31;;;13.09;100.00
78562;BME280;68963;52.138;5.446;2023-08-07T02:52:47;101378.59;;;13.09;100.00
78562;BME280;68963;52.138;5.446;2023-08-07T02:55:14;101388.13;;;13.10;100.00
78562;BME280;68963;52.138;5.446;2023-08-07T02:57:41;101387.31;;;13.09;100.00
78562;BME280;68963;52.138;5.446;2023-08-07T03:00:08;101384.69;;;13.09;100.00
78562;BME280;68963;52.138;5.446;2023-08-07T03:02:35;101384.88;;;13.08;100.00
78562;BME280;68963;52.138;5.446;2023-08-07T03:05:04;101381.59;;;13.05;100.00
78562;BME280;68963;52.138;5.446;2023-08-07T03:07:36;101381.44;;;13.07;100.00
78562;BME280;68963;52.138;5.446;2023-08-07T03:10:03;101396.44;;;13.06;100.00
78562;BME280;68963;52.138;5.446;2023-08-07T03:12:40;101377.94;;;13.06;100.00
78562;BME280;68963;52.138;5.446;2023-08-07T03:15:08;101374.69;;;13.04;100.00
78562;BME280;68963;52.138;5.446;2023-08-07T03:17:34;101373.06;;;13.03;100.00
78562;BME280;68963;52.138;5.446;2023-08-07T03:20:08;101367.94;;;13.02;100.00
78562;BME280;68963;52.138;5.446;2023-08-07T03:22:41;101368.16;;;13.00;100.00
78562;BME280;68963;52.138;5.446;2023-08-07T03:25:16;101360.38;;;12.99;100.00
78562;BME280;68963;52.138;5.446;2023-08-07T03:27:46;101357.94;;;12.97;100.00
78562;BME280;68963;52.138;5.446;2023-08-07T03:30:22;101360.38;;;12.99;100.00
78562;BME280;68963;52.138;5.446;2023-08-07T03:32:48;101371.16;;;12.97;100.00
78562;BME280;68963;52.138;5.446;2023-08-07T03:35:16;101370.34;;;12.97;100.00
78562;BME280;68963;52.138;5.446;2023-08-07T03:37:43;101367.50;;;12.98;100.00
78562;BME280;68963;52.138;5.446;2023-08-07T03:40:10;101373.00;;;12.97;100.00
78562;BME280;68963;52.138;5.446;2023-08-07T03:42:37;101374.81;;;12.96;100.00
78562;BME280;68963;52.138;5.446;2023-08-07T03:45:11;101368.53;;;12.97;100.00
78562;BME280;68963;52.138;5.446;2023-08-07T03:47:38;101367.69;;;12.97;100.00
78562;BME280;68963;52.138;5.446;2023-08-07T03:50:05;101367.50;;;12.98;100.00
78562;BME280;68963;52.138;5.446;2023-08-07T03:52:33;101369.13;;;12.99;100.00
78562;BME280;68963;52.138;5.446;2023-08-07T03:55:03;101375.25;;;13.00;100.00
78562;BME280;68963;52.138;5.446;2023-08-07T03:57:33;101373.59;;;12.99;100.00
78562;BME280;68963;52.138;5.446;2023-08-07T04:00:00;101371.78;;;12.99;100.00
78562;BME280;68963;52.138;5.446;2023-08-07T04:02:27;101366.31;;;13.01;100.00
78562;BME280;68963;52.138;5.446;2023-08-07T04:04:58;101368.75;;;13.02;100.00
78562;BME280;68963;52.138;5.446;2023-08-07T04:07:26;101370.41;;;13.03;100.00
78562;BME280;68963;52.138;5.446;2023-08-07T04:09:53;101376.31;;;13.05;100.00
78562;BME280;68963;52.138;5.446;2023-08-07T04:12:20;101370.00;;;13.06;100.00
78562;BME280;68963;52.138;5.446;2023-08-07T04:14:46;101372.47;;;13.08;100.00
78562;BME280;68963;52.138;5.446;2023-08-07T04:17:15;101378.38;;;13.10;100.00
78562;BME280;68963;52.138;5.446;2023-08-07T04:19:42;101379.38;;;13.09;100.00
78562;BME280;68963;52.138;5.446;2023-08-07T04:22:09;101384.69;;;13.09;100.00
78562;BME280;68963;52.138;5.446;2023-08-07T04:24:36;101382.84;;;13.10;100.00
78562;BME280;68963;52.138;5.446;2023-08-07T04:27:03;101383.88;;;13.09;100.00
78562;BME280;68963;52.138;5.446;2023-08-07T04:29:30;101385.69;;;13.08;100.00
78562;BME280;68963;52.138;5.446;2023-08-07T04:31:57;101390.78;;;13.10;100.00
78562;BME280;68963;52.138;5.446;2023-08-07T04:34:24;101389.16;;;13.09;100.00
78562;BME280;68963;52.138;5.446;2023-08-07T04:37:08;101396.88;;;13.10;100.00
78562;BME280;68963;52.138;5.446;2023-08-07T04:39:34;101389.97;;;13.09;100.00
78562;BME280;68963;52.138;5.446;2023-08-07T04:42:02;101404.00;;;13.10;100.00
78562;BME280;68963;52.138;5.446;2023-08-07T04:44:29;101410.94;;;13.11;100.00
78562;BME280;68963;52.138;5.446;2023-08-07T04:47:45;101414.41;;;13.11;100.00
78562;BME280;68963;52.138;5.446;2023-08-07T04:50:19;101409.94;;;13.12;100.00
78562;BME280;68963;52.138;5.446;2023-08-07T04:52:49;101403.63;;;13.13;100.00
78562;BME280;68963;52.138;5.446;2023-08-07T04:55:19;101417.69;;;13.13;100.00
78562;BME280;68963;52.138;5.446;2023-08-07T04:57:46;101421.13;;;13.14;100.00
78562;BME280;68963;52.138;5.446;2023-08-07T05:00:27;101414.84;;;13.15;100.00
78562;BME280;68963;52.138;5.446;2023-08-07T05:02:57;101419.13;;;13.16;100.00
78562;BME280;68963;52.138;5.446;2023-08-07T05:05:24;101418.13;;;13.17;100.00
78562;BME280;68963;52.138;5.446;2023-08-07T05:07:51;101420.38;;;13.20;100.00
78562;BME280;68963;52.138;5.446;2023-08-07T05:10:18;101422.00;;;13.21;100.00
78562;BME280;68963;52.138;5.446;2023-08-07T05:12:45;101434.06;;;13.23;100.00
78562;BME280;68963;52.138;5.446;2023-08-07T05:15:12;101438.34;;;13.24;100.00
78562;BME280;68963;52.138;5.446;2023-08-07T05:17:39;101447.09;;;13.25;100.00
78562;BME280;68963;52.138;5.446;2023-08-07T05:20:07;101449.09;;;13.23;100.00
78562;BME280;68963;52.138;5.446;2023-08-07T05:22:35;101460.72;;;13.22;100.00
78562;BME280;68963;52.138;5.446;2023-08-07T05:25:04;101459.53;;;13.24;100.00
78562;BME280;68963;52.138;5.446;2023-08-07T05:27:31;101453.22;;;13.25;100.00
78562;BME280;68963;52.138;5.446;2023-08-07T05:29:59;101463.78;;;13.25;100.00
78562;BME280;68963;52.138;5.446;2023-08-07T05:32:25;101456.22;;;13.22;100.00
78562;BME280;68963;52.138;5.446;2023-08-07T05:34:52;101460.53;;;13.23;100.00
78562;BME280;68963;52.138;5.446;2023-08-07T05:37:19;101466.00;;;13.22;100.00
78562;BME280;68963;52.138;5.446;2023-08-07T05:39:46;101457.88;;;13.23;100.00
78562;BME280;68963;52.138;5.446;2023-08-07T05:42:12;101462.34;;;13.23;100.00
78562;BME280;68963;52.138;5.446;2023-08-07T05:44:40;101471.72;;;13.25;100.00
78562;BME280;68963;52.138;5.446;2023-08-07T05:47:29;101468.91;;;13.27;100.00
78562;BME280;68963;52.138;5.446;2023-08-07T05:49:56;101478.47;;;13.28;100.00
78562;BME280;68963;52.138;5.446;2023-08-07T05:52:23;101475.03;;;13.27;100.00
78562;BME280;68963;52.138;5.446;2023-08-07T05:54:49;101482.75;;;13.29;100.00
78562;BME280;68963;52.138;5.446;2023-08-07T05:57:17;101475.66;;;13.29;100.00
78562;BME280;68963;52.138;5.446;2023-08-07T05:59:44;101471.78;;;13.32;100.00
78562;BME280;68963;52.138;5.446;2023-08-07T06:02:11;101474.88;;;13.36;100.00
78562;BME280;68963;52.138;5.446;2023-08-07T06:04:40;101478.78;;;13.40;100.00
78562;BME280;68963;52.138;5.446;2023-08-07T06:07:07;101480.22;;;13.42;100.00
78562;BME280;68963;52.138;5.446;2023-08-07T06:09:37;101482.50;;;13.45;100.00
78562;BME280;68963;52.138;5.446;2023-08-07T06:12:07;101480.47;;;13.47;100.00
78562;BME280;68963;52.138;5.446;2023-08-07T06:14:34;101487.84;;;13.52;100.00
78562;BME280;68963;52.138;5.446;2023-08-07T06:17:01;101495.88;;;13.59;100.00
78562;BME280;68963;52.138;5.446;2023-08-07T06:19:28;101492.44;;;13.65;100.00
78562;BME280;68963;52.138;5.446;2023-08-07T06:21:58;101492.47;;;13.71;100.00
78562;BME280;68963;52.138;5.446;2023-08-07T06:24:25;101506.38;;;13.80;100.00
78562;BME280;68963;52.138;5.446;2023-08-07T06:26:52;101501.97;;;13.87;100.00
78562;BME280;68963;52.138;5.446;2023-08-07T06:29:19;101509.75;;;13.95;100.00
78562;BME280;68963;52.138;5.446;2023-08-07T06:31:46;101503.31;;;14.05;100.00
78562;BME280;68963;52.138;5.446;2023-08-07T06:34:14;101499.09;;;14.17;100.00
78562;BME280;68963;52.138;5.446;2023-08-07T06:36:41;101503.63;;;14.23;100.00
78562;BME280;68963;52.138;5.446;2023-08-07T06:39:07;101498.97;;;14.32;100.00
78562;BME280;68963;52.138;5.446;2023-08-07T06:41:35;101509.81;;;14.37;100.00
78562;BME280;68963;52.138;5.446;2023-08-07T06:44:16;101517.19;;;14.41;100.00
78562;BME280;68963;52.138;5.446;2023-08-07T06:46:52;101520.25;;;14.45;100.00
78562;BME280;68963;52.138;5.446;2023-08-07T06:49:27;101521.13;;;14.52;100.00
78562;BME280;68963;52.138;5.446;2023-08-07T06:52:13;101518.31;;;14.60;100.00
78562;BME280;68963;52.138;5.446;2023-08-07T06:54:45;101522.84;;;14.66;100.00
78562;BME280;68963;52.138;5.446;2023-08-07T06:57:47;101524.91;;;14.78;100.00
78562;BME280;68963;52.138;5.446;2023-08-07T07:00:19;101525.13;;;14.83;100.00
78562;BME280;68963;52.138;5.446;2023-08-07T07:02:46;101520.47;;;14.91;100.00
78562;BME280;68963;52.138;5.446;2023-08-07T07:05:13;101529.66;;;15.02;100.00
78562;BME280;68963;52.138;5.446;2023-08-07T07:07:43;101528.28;;;15.06;100.00
78562;BME280;68963;52.138;5.446;2023-08-07T07:10:15;101544.38;;;15.05;100.00
78562;BME280;68963;52.138;5.446;2023-08-07T07:12:42;101544.38;;;15.05;100.00
78562;BME280;68963;52.138;5.446;2023-08-07T07:15:37;101552.31;;;14.91;100.00
78562;BME280;68963;52.138;5.446;2023-08-07T07:18:07;101557.97;;;14.82;100.00
78562;BME280;68963;52.138;5.446;2023-08-07T07:20:34;101566.09;;;14.73;100.00
78562;BME280;68963;52.138;5.446;2023-08-07T07:23:01;101571.56;;;14.65;100.00
78562;BME280;68963;52.138;5.446;2023-08-07T07:25:28;101567.66;;;14.55;100.00
78562;BME280;68963;52.138;5.446;2023-08-07T07:27:55;101575.53;;;14.48;100.00
78562;BME280;68963;52.138;5.446;2023-08-07T07:30:21;101580.03;;;14.47;100.00
78562;BME280;68963;52.138;5.446;2023-08-07T07:32:52;101574.97;;;14.53;100.00
78562;BME280;68963;52.138;5.446;2023-08-07T07:35:19;101582.28;;;14.50;100.00
78562;BME280;68963;52.138;5.446;2023-08-07T07:37:46;101585.78;;;14.51;100.00
78562;BME280;68963;52.138;5.446;2023-08-07T07:40:13;101589.59;;;14.77;100.00
78562;BME280;68963;52.138;5.446;2023-08-07T07:42:40;101589.88;;;14.95;100.00
78562;BME280;68963;52.138;5.446;2023-08-07T07:45:07;101593.13;;;14.97;100.00
78562;BME280;68963;52.138;5.446;2023-08-07T07:47:35;101596.00;;;15.02;100.00
78562;BME280;68963;52.138;5.446;2023-08-07T07:50:06;101590.94;;;15.07;100.00
78562;BME280;68963;52.138;5.446;2023-08-07T07:52:37;101598.53;;;15.30;100.00
78562;BME280;68963;52.138;5.446;2023-08-07T07:55:04;101594.13;;;15.51;100.00
78562;BME280;68963;52.138;5.446;2023-08-07T07:57:31;101597.41;;;15.79;100.00
78562;BME280;68963;52.138;5.446;2023-08-07T07:59:58;101595.59;;;15.86;100.00
78562;BME280;68963;52.138;5.446;2023-08-07T08:02:24;101601.72;;;15.87;100.00
78562;BME280;68963;52.138;5.446;2023-08-07T08:04:55;101601.31;;;15.70;100.00
78562;BME280;68963;52.138;5.446;2023-08-07T08:07:22;101613.25;;;15.33;100.00
78562;BME280;68963;52.138;5.446;2023-08-07T08:09:49;101609.06;;;15.04;100.00
78562;BME280;68963;52.138;5.446;2023-08-07T08:12:21;101627.75;;;14.82;100.00
78562;BME280;68963;52.138;5.446;2023-08-07T08:14:53;101636.25;;;14.71;100.00
78562;BME280;68963;52.138;5.446;2023-08-07T08:17:23;101631.06;;;14.56;100.00
78562;BME280;68963;52.138;5.446;2023-08-07T08:19:49;101631.88;;;14.57;100.00
78562;BME280;68963;52.138;5.446;2023-08-07T08:22:19;101629.66;;;14.60;100.00
78562;BME280;68963;52.138;5.446;2023-08-07T08:24:46;101631.34;;;14.68;100.00
78562;BME280;68963;52.138;5.446;2023-08-07T08:27:14;101630.97;;;14.71;100.00
78562;BME280;68963;52.138;5.446;2023-08-07T08:29:41;101627.16;;;14.80;100.00
78562;BME280;68963;52.138;5.446;2023-08-07T08:32:08;101642.63;;;14.83;100.00
78562;BME280;68963;52.138;5.446;2023-08-07T08:34:38;101642.47;;;14.85;100.00
78562;BME280;68963;52.138;5.446;2023-08-07T08:37:34;101630.47;;;14.95;100.00
78562;BME280;68963;52.138;5.446;2023-08-07T08:40:01;101628.88;;;15.08;100.00
78562;BME280;68963;52.138;5.446;2023-08-07T08:42:29;101646.91;;;15.19;100.00
78562;BME280;68963;52.138;5.446;2023-08-07T08:45:00;101641.25;;;15.42;100.00
78562;BME280;68963;52.138;5.446;2023-08-07T08:47:36;101642.41;;;15.81;100.00
78562;BME280;68963;52.138;5.446;2023-08-07T08:50:07;101643.22;;;16.01;100.00
78562;BME280;68963;52.138;5.446;2023-08-07T08:52:36;101647.13;;;15.99;97.31
78562;BME280;68963;52.138;5.446;2023-08-07T08:55:04;101645.47;;;15.84;98.57
78562;BME280;68963;52.138;5.446;2023-08-07T08:57:33;101657.09;;;15.70;97.22
78562;BME280;68963;52.138;5.446;2023-08-07T09:00:01;101658.69;;;15.58;97.57
78562;BME280;68963;52.138;5.446;2023-08-07T09:02:43;101671.09;;;15.44;98.55
78562;BME280;68963;52.138;5.446;2023-08-07T09:05:14;101678.03;;;15.45;97.94
78562;BME280;68963;52.138;5.446;2023-08-07T09:07:42;101674.34;;;15.46;96.79
78562;BME280;68963;52.138;5.446;2023-08-07T09:10:13;101666.22;;;15.54;98.17
78562;BME280;68963;52.138;5.446;2023-08-07T09:12:42;101666.28;;;15.74;97.25
78562;BME280;68963;52.138;5.446;2023-08-07T09:15:13;101670.41;;;15.83;94.52
78562;BME280;68963;52.138;5.446;2023-08-07T09:17:43;101680.41;;;15.81;94.65
78562;BME280;68963;52.138;5.446;2023-08-07T09:20:11;101673.63;;;15.72;92.10
78562;BME280;68963;52.138;5.446;2023-08-07T09:22:40;101687.75;;;15.73;94.31
78562;BME280;68963;52.138;5.446;2023-08-07T09:25:07;101680.41;;;15.88;93.82
78562;BME280;68963;52.138;5.446;2023-08-07T09:27:40;101677.78;;;16.14;89.81
78562;BME280;68963;52.138;5.446;2023-08-07T09:30:07;101682.69;;;16.31;88.07
78562;BME280;68963;52.138;5.446;2023-08-07T09:32:39;101678.38;;;16.56;88.50
78562;BME280;68963;52.138;5.446;2023-08-07T09:35:06;101693.31;;;16.77;84.33
78562;BME280;68963;52.138;5.446;2023-08-07T09:37:36;101692.88;;;16.67;84.15
78562;BME280;68963;52.138;5.446;2023-08-07T09:40:03;101684.50;;;16.63;83.76
78562;BME280;68963;52.138;5.446;2023-08-07T09:42:31;101689.41;;;16.60;86.76
78562;BME280;68963;52.138;5.446;2023-08-07T09:45:18;101683.50;;;16.51;86.46
78562;BME280;68963;52.138;5.446;2023-08-07T09:47:45;101688.19;;;16.49;86.05
78562;BME280;68963;52.138;5.446;2023-08-07T09:50:23;101698.03;;;16.49;84.92
78562;BME280;68963;52.138;5.446;2023-08-07T09:52:50;101690.88;;;16.42;86.28
78562;BME280;68963;52.138;5.446;2023-08-07T09:55:18;101704.34;;;16.34;88.71
78562;BME280;68963;52.138;5.446;2023-08-07T09:57:51;101707.66;;;16.36;88.46
78562;BME280;68963;52.138;5.446;2023-08-07T10:00:19;101718.28;;;16.50;86.38
78562;BME280;68963;52.138;5.446;2023-08-07T10:02:49;101723.81;;;16.61;84.39
78562;BME280;68963;52.138;5.446;2023-08-07T10:05:22;101720.94;;;16.56;81.84
78562;BME280;68963;52.138;5.446;2023-08-07T10:07:50;101722.56;;;16.64;83.20
78562;BME280;68963;52.138;5.446;2023-08-07T10:10:20;101719.91;;;16.64;83.48
78562;BME280;68963;52.138;5.446;2023-08-07T10:12:56;101721.97;;;16.69;83.41
78562;BME280;68963;52.138;5.446;2023-08-07T10:15:27;101724.41;;;16.63;83.73
78562;BME280;68963;52.138;5.446;2023-08-07T10:18:01;101731.16;;;16.59;83.00
78562;BME280;68963;52.138;5.446;2023-08-07T10:20:52;101726.06;;;16.78;87.61
78562;BME280;68963;52.138;5.446;2023-08-07T10:23:20;101721.88;;;17.08;85.32
78562;BME280;68963;52.138;5.446;2023-08-07T10:25:48;101729.16;;;17.39;84.66
78562;BME280;68963;52.138;5.446;2023-08-07T10:28:18;101733.19;;;17.55;83.47
78562;BME280;68963;52.138;5.446;2023-08-07T10:30:45;101723.75;;;17.59;81.33
78562;BME280;68963;52.138;5.446;2023-08-07T10:33:13;101726.16;;;17.23;79.70
78562;BME280;68963;52.138;5.446;2023-08-07T10:35:47;101717.09;;;17.37;84.04
78562;BME280;68963;52.138;5.446;2023-08-07T10:38:19;101728.06;;;17.60;82.33
78562;BME280;68963;52.138;5.446;2023-08-07T10:44:44;101724.22;;;17.95;80.46
78562;BME280;68963;52.138;5.446;2023-08-07T10:47:33;101726.19;;;17.68;81.37
78562;BME280;68963;52.138;5.446;2023-08-07T10:50:34;101728.72;;;17.49;81.31
78562;BME280;68963;52.138;5.446;2023-08-07T10:53:02;101739.00;;;17.46;79.69
78562;BME280;68963;52.138;5.446;2023-08-07T10:59:37;101749.72;;;17.71;76.61
78562;BME280;68963;52.138;5.446;2023-08-07T11:02:11;101730.81;;;17.85;76.36
78562;BME280;68963;52.138;5.446;2023-08-07T11:04:39;101744.59;;;17.82;73.43
78562;BME280;68963;52.138;5.446;2023-08-07T11:07:06;101741.78;;;17.64;76.38
78562;BME280;68963;52.138;5.446;2023-08-07T11:09:38;101728.28;;;17.52;77.68
78562;BME280;68963;52.138;5.446;2023-08-07T11:12:05;101747.81;;;17.39;77.59
78562;BME280;68963;52.138;5.446;2023-08-07T11:14:32;101758.94;;;17.17;77.46
78562;BME280;68963;52.138;5.446;2023-08-07T11:17:00;101758.50;;;17.26;77.24
78562;BME280;68963;52.138;5.446;2023-08-07T11:19:29;101746.31;;;17.57;77.49
78562;BME280;68963;52.138;5.446;2023-08-07T11:21:57;101759.84;;;17.49;75.57
78562;BME280;68963;52.138;5.446;2023-08-07T11:24:27;101761.28;;;17.51;77.57
78562;BME280;68963;52.138;5.446;2023-08-07T11:26:54;101755.44;;;17.74;76.11
78562;BME280;68963;52.138;5.446;2023-08-07T11:29:23;101760.09;;;17.92;75.46
78562;BME280;68963;52.138;5.446;2023-08-07T11:31:52;101768.47;;;18.34;72.05
78562;BME280;68963;52.138;5.446;2023-08-07T11:34:19;101761.28;;;18.59;73.47
78562;BME280;68963;52.138;5.446;2023-08-07T11:36:46;101760.66;;;18.57;72.78
78562;BME280;68963;52.138;5.446;2023-08-07T11:39:14;101763.38;;;18.51;72.37
78562;BME280;68963;52.138;5.446;2023-08-07T11:41:44;101768.72;;;18.51;70.06
78562;BME280;68963;52.138;5.446;2023-08-07T11:44:19;101767.97;;;18.69;71.28
78562;BME280;68963;52.138;5.446;2023-08-07T11:46:53;101760.09;;;18.99;73.62
78562;BME280;68963;52.138;5.446;2023-08-07T11:49:21;101763.81;;;19.53;71.36
78562;BME280;68963;52.138;5.446;2023-08-07T11:51:50;101761.91;;;19.42;66.69
78562;BME280;68963;52.138;5.446;2023-08-07T11:54:18;101747.38;;;19.38;69.15
78562;BME280;68963;52.138;5.446;2023-08-07T11:56:48;101756.94;;;19.64;69.83
78562;BME280;68963;52.138;5.446;2023-08-07T11:59:18;101766.47;;;19.90;67.45
78562;BME280;68963;52.138;5.446;2023-08-07T12:01:45;101741.88;;;20.11;67.36
78562;BME280;68963;52.138;5.446;2023-08-07T12:04:17;101749.13;;;20.34;65.34
78562;BME280;68963;52.138;5.446;2023-08-07T12:06:56;101749.84;;;20.41;65.94
78562;BME280;68963;52.138;5.446;2023-08-07T12:09:25;101746.56;;;20.39;64.68
78562;BME280;68963;52.138;5.446;2023-08-07T12:11:58;101737.00;;;20.20;65.45
78562;BME280;68963;52.138;5.446;2023-08-07T12:14:34;101744.47;;;20.30;62.56
78562;BME280;68963;52.138;5.446;2023-08-07T12:17:02;101744.16;;;19.96;62.88
78562;BME280;68963;52.138;5.446;2023-08-07T12:19:38;101753.81;;;19.48;62.28
78562;BME280;68963;52.138;5.446;2023-08-07T12:22:10;101739.19;;;19.33;61.25
78562;BME280;68963;52.138;5.446;2023-08-07T12:24:37;101761.16;;;18.98;63.57
78562;BME280;68963;52.138;5.446;2023-08-07T12:27:04;101760.28;;;19.04;59.70
78562;BME280;68963;52.138;5.446;2023-08-07T12:29:31;101752.81;;;18.88;57.54
78562;BME280;68963;52.138;5.446;2023-08-07T12:31:58;101760.50;;;19.21;59.84
78562;BME280;68963;52.138;5.446;2023-08-07T12:34:27;101763.38;;;19.56;56.95
78562;BME280;68963;52.138;5.446;2023-08-07T12:36:56;101754.66;;;19.79;54.08
78562;BME280;68963;52.138;5.446;2023-08-07T12:39:23;101750.97;;;19.92;55.21
78562;BME280;68963;52.138;5.446;2023-08-07T12:42:10;101758.50;;;20.13;54.11
78562;BME280;68963;52.138;5.446;2023-08-07T12:44:40;101754.00;;;20.25;54.96
78562;BME280;68963;52.138;5.446;2023-08-07T12:47:06;101755.72;;;20.20;55.19
78562;BME280;68963;52.138;5.446;2023-08-07T12:49:33;101760.88;;;20.33;55.83
78562;BME280;68963;52.138;5.446;2023-08-07T12:52:00;101754.38;;;20.29;55.21
78562;BME280;68963;52.138;5.446;2023-08-07T12:54:30;101746.91;;;20.43;56.96
78562;BME280;68963;52.138;5.446;2023-08-07T12:56:57;101747.56;;;20.92;56.03
78562;BME280;68963;52.138;5.446;2023-08-07T12:59:24;101749.81;;;21.23;54.02
78562;BME280;68963;52.138;5.446;2023-08-07T13:01:50;101756.41;;;20.81;52.54
78562;BME280;68963;52.138;5.446;2023-08-07T13:04:19;101756.38;;;20.57;55.13
78562;BME280;68963;52.138;5.446;2023-08-07T13:06:46;101762.44;;;20.76;53.51